»·PEaware :: N210AR KSNA-KBUR

N210AR :: KSNA-KBUR

FLIGHT INFORMATION

Flight Status: Arrived
Operator: Privately registered:
United States
More flights under this callsign
Pilot: Max S. (16657)
Aircraft: CESSNA 172 SKYHAWK
(C172)
More flights by this aircraft type
Origin: KSNA John Wayne-Orange Co
United States
Destination: KBUR Bob Hope-Burbank
United States
More flights between these airports :: More routes between these airports
Route: SLI V23 POPPR SMO125R SMO SMO311R SILEX
File this flight plan on PilotEdge
Remarks: TEC route CSTP1
Altitude:
(Current/Filed)
4,000ft
Speed:
(Current/Filed)
100kts
Departed: 17-Nov-20 09:24 AM
Arrived: 17-Nov-20 10:04 AM
Distance/Time
Traveled:
166nm/0:40
Distance/Time
To Go:
Arrived

Flight Plot

Page will automatically refresh every two minutes.


Map Options




Map Legend


Flown Route
Filed Route
Departure Airport
Arrival Airport
Navaid (VOR, NDB)
Fix

Horizontal Profiles

Position Reports

Time Latitude Longitude Heading Altitude Ground
Speed
17-Nov-20 09:07 33.670560 -117.867903 210 60ft 0kts
17-Nov-20 09:08 33.670560 -117.867903 210 60ft 0kts
17-Nov-20 09:09 33.670560 -117.867903 210 60ft 0kts
17-Nov-20 09:10 33.670560 -117.867903 210 60ft 0kts
17-Nov-20 09:11 33.670560 -117.867903 210 60ft 0kts
17-Nov-20 09:12 33.670560 -117.867903 210 60ft 0kts
17-Nov-20 09:13 33.670560 -117.867903 210 60ft 0kts
17-Nov-20 09:14 33.670560 -117.867903 210 60ft 0kts
17-Nov-20 09:15 33.670560 -117.867903 210 60ft 0kts
17-Nov-20 09:16 33.670560 -117.867903 210 60ft 0kts
17-Nov-20 09:17 33.670971 -117.868650 310 60ft 6kts
17-Nov-20 09:18 33.673803 -117.867188 351 60ft 14kts
17-Nov-20 09:19 33.678141 -117.864523 28 60ft 19kts
17-Nov-20 09:20 33.679967 -117.863624 296 60ft 0kts
17-Nov-20 09:21 33.679967 -117.863624 296 60ft 0kts
17-Nov-20 09:22 33.679967 -117.863624 296 60ft 0kts
17-Nov-20 09:23 33.672013 -117.869498 208 365ft 69kts
17-Nov-20 09:24 33.655994 -117.888814 230 1093ft 96kts
17-Nov-20 09:25 33.638376 -117.915267 230 1840ft 102kts
17-Nov-20 09:26 33.618323 -117.945438 231 1864ft 116kts
17-Nov-20 09:27 33.598317 -117.975435 231 1865ft 114kts
17-Nov-20 09:28 33.605570 -117.997367 359 2395ft 77kts
17-Nov-20 09:29 33.626821 -117.997125 0 2890ft 93kts
17-Nov-20 09:30 33.655604 -117.996606 0 3446ft 106kts
17-Nov-20 09:31 33.685148 -117.996093 0 3872ft 119kts
17-Nov-20 09:32 33.719096 -117.995469 0 3866ft 118kts
17-Nov-20 09:33 33.751429 -117.994917 0 3866ft 115kts
17-Nov-20 09:34 33.767681 -118.022844 292 3864ft 114kts
17-Nov-20 09:35 33.782906 -118.056524 300 3867ft 114kts
17-Nov-20 09:36 33.797748 -118.090444 299 3867ft 114kts
17-Nov-20 09:37 33.811166 -118.125283 289 3867ft 114kts
17-Nov-20 09:38 33.820837 -118.161859 286 3867ft 114kts
17-Nov-20 09:39 33.829414 -118.198735 285 3867ft 114kts
17-Nov-20 09:40 33.837741 -118.235932 284 3867ft 114kts
17-Nov-20 09:41 33.845410 -118.273084 292 3866ft 114kts
17-Nov-20 09:42 33.856746 -118.307994 312 3866ft 114kts
17-Nov-20 09:43 33.880324 -118.333698 319 3867ft 114kts
17-Nov-20 09:44 33.906844 -118.353620 343 3867ft 114kts
17-Nov-20 09:45 33.933844 -118.373512 321 3867ft 114kts
17-Nov-20 09:46 33.957589 -118.399272 314 3867ft 114kts
17-Nov-20 09:47 33.981141 -118.425219 318 3867ft 114kts
17-Nov-20 09:48 34.004576 -118.451194 318 3867ft 114kts
17-Nov-20 09:49 34.030319 -118.473794 326 3867ft 114kts
17-Nov-20 09:50 34.056323 -118.495887 306 3865ft 114kts
17-Nov-20 09:51 34.069373 -118.530935 291 3867ft 114kts
17-Nov-20 09:52 34.081140 -118.566776 291 3867ft 114kts
17-Nov-20 09:53 34.096201 -118.599423 341 3863ft 114kts
17-Nov-20 09:54 34.127673 -118.605146 3 3864ft 115kts
17-Nov-20 09:55 34.159234 -118.598721 10 3867ft 114kts
17-Nov-20 09:57 34.181609 -118.575113 62 3790ft 120kts
17-Nov-20 09:58 34.196700 -118.540090 69 3008ft 112kts
17-Nov-20 09:59 34.199386 -118.501331 86 2538ft 116kts
17-Nov-20 10:00 34.199589 -118.465306 91 2487ft 138kts
17-Nov-20 10:01 34.199149 -118.433249 91 1945ft 150kts
17-Nov-20 10:02 34.198255 -118.397333 89 1310ft 89kts
17-Nov-20 10:03 34.197959 -118.371438 89 843ft 70kts
17-Nov-20 10:04 34.198478 -118.360256 359 722ft 8kts
17-Nov-20 10:05 34.198630 -118.360270 341 723ft 4kts
17-Nov-20 10:06 34.199479 -118.364175 268 731ft 12kts
17-Nov-20 10:07 34.200559 -118.364458 176 736ft 0kts
17-Nov-20 10:08 34.200559 -118.364458 176 736ft 0kts
17-Nov-20 10:09 34.200559 -118.364458 176 736ft 0kts
17-Nov-20 10:10 35.234427 -120.632963 213 216ft 0kts
17-Nov-20 10:11 35.234427 -120.632963 213 216ft 0kts
17-Nov-20 10:12 35.234427 -120.632963 213 216ft 0kts
17-Nov-20 10:13 35.234427 -120.632963 213 216ft 0kts
17-Nov-20 10:14 35.234427 -120.632963 213 216ft 0kts
17-Nov-20 10:15 35.234427 -120.632963 213 216ft 0kts
17-Nov-20 10:15 35.234427 -120.632963 213 216ft 0kts
17-Nov-20 10:17 35.234427 -120.632963 213 216ft 0kts
17-Nov-20 10:17 35.234427 -120.632963 213 216ft 0kts

Navigation Log

Ident Type
Flight plan parsing failed, navigation log unavailable